Latest Coastal Weather Observations for Gove Airport

IDD60701

Issued at 6:21 am CST Monday 2 March 2015 (issued every 10 minutes, with the page automatically refreshed every 10 minutes)

About coastal observations | Map of coastal stations | Coastal observations for NT | Marine services | Other Formats
Station Details ID: 014508 Name: GOVE AIRPORT Lat: -12.27 Lon: 136.82 Height: 51.6 m
Data from the previous 72 hours. | See also: Recent months at Gove Airport
Date/Time
CST
Temp

°C
Wind Pressure Rain
since 9am
mm
Weather Cloud Vis
km
Sea
Height
m
Swell
Dir
 
Speed
knots
Gust
knots
hPa Trend Height
m
Period
s
Dir
02/06:00am 26.3 NNE 5 7 1005.5 R 5.8 Fine Mostly cloudy 35 - - - -
02/05:30am 26.1 N 6 7 1005.2 - 5.8 - Partly cloudy 10 - - - -
02/05:00am 26.1 N 5 7 1004.9 - 5.8 - Partly cloudy 10 - - - -
02/04:30am 25.3 CALM 0 0 1004.7 - 5.8 - Partly cloudy 10 - - - -
02/04:00am 25.9 N 3 5 1004.3 - 5.8 - Partly cloudy 10 - - - -
02/03:30am 25.8 N 4 5 1004.2 - 5.8 - Partly cloudy 10 - - - -
02/03:00am 25.8 N 3 4 1004.2 - 5.8 - Mostly clear 10 - - - -
02/02:30am 25.8 N 4 5 1004.8 - 5.8 - Partly cloudy 10 - - - -
02/02:00am 25.6 NNW 1 4 1005.3 - 5.8 - Partly cloudy 10 - - - -
02/01:47am 25.6 CALM 0 0 1005.3 - 5.8 - Partly cloudy 10 - - - -
02/01:30am 25.4 CALM 0 0 1005.6 - 5.8 - Partly cloudy 10 - - - -
02/01:23am 25.3 CALM 0 0 1005.7 - 5.8 - Partly cloudy 10 - - - -
02/01:00am 25.3 CALM 0 0 1006.0 - 5.8 - - 10 - - - -
02/12:30am 25.4 CALM 0 0 1006.3 - 5.8 - - 10 - - - -
02/12:00am 25.5 CALM 0 0 1006.1 - 5.8 - Mostly cloudy 10 - - - -
 
Date/Time
CST
Temp

°C
Wind Pressure Rain
since 9am
mm
Weather Cloud Vis
km
Sea
Height
m
Swell
Dir
 
Speed
knots
Gust
knots
hPa Trend Height
m
Period
s
Dir
01/11:30pm 25.5 NW 2 3 1006.8 - 5.8 - Partly cloudy 10 - - - -
01/11:00pm 25.6 N 4 5 1006.9 - 5.8 - Partly cloudy 10 - - - -
01/10:30pm 25.5 NNW 5 6 1006.4 - 5.8 - Partly cloudy 10 - - - -
01/10:00pm 25.6 NNW 4 5 1006.0 - 5.8 - Mostly clear 10 - - - -
01/09:30pm 25.8 NNW 5 7 1005.8 - 5.8 - Mostly clear 10 - - - -
01/09:00pm 26.0 N 5 7 1005.2 R 5.8 Fine Partly cloudy 22 - - - -
01/08:30pm 25.9 N 7 9 1005.2 - 5.8 - Partly cloudy 10 - - - -
01/08:00pm 26.0 ENE 4 8 1004.7 - 5.8 - Mostly clear 10 - - - -
01/07:30pm 26.0 ESE 5 6 1004.3 - 5.8 - Mostly clear 10 - - - -
01/07:00pm 26.2 E 5 6 1004.0 - 5.8 - Mostly clear 10 - - - -
01/06:30pm 26.5 ENE 5 7 1003.9 - 5.8 - Mostly clear 10 - - - -
01/06:00pm 26.8 E 7 8 1003.3 F 5.8 Showers Mostly cloudy 12 - - - -
01/05:30pm 27.4 S 3 6 1003.5 - 5.4 Showers Mostly clear 3 - - - -
01/05:24pm 27.4 SSW 5 7 1003.3 - 5.2 - Partly cloudy 10 - - - -
01/05:00pm 27.2 SW 5 7 1003.0 - 5.2 - Mostly clear 10 - - - -
01/04:30pm 27.5 SSW 2 5 1002.8 - 5.2 - Mostly clear 10 - - - -
01/04:00pm 26.8 WSW 3 5 1002.7 - 5.2 - Mostly clear 10 - - - -
01/03:29pm 26.6 WNW 6 7 1003.3 - 5.2 - Mostly clear 10 - - - -
01/03:00pm 26.2 WSW 5 7 1003.5 F 5.2 Drizzle Mostly cloudy 6 - - - -
01/02:45pm 26.6 W 6 9 1003.8 - 5.2 Drizzle Mostly clear 4 - - - -
01/02:30pm 26.7 W 5 7 1003.9 - 5.2 Showers Mostly clear 8 - - - -
01/02:00pm 26.8 W 7 9 1004.3 - 5.2 - Mostly clear 10 - - - -
01/01:31pm 26.7 W 5 7 1005.0 - 5.2 - Partly cloudy 10 - - - -
01/01:30pm 26.8 W 5 7 1005.0 - 5.2 - Partly cloudy 10 - - - -
01/01:00pm 26.6 SW 5 8 1005.5 - 5.0 Showers Mostly clear 5 - - - -
01/12:30pm 26.5 SE 4 6 1005.9 - 5.0 Showers Mostly clear 10 - - - -
01/12:00pm 26.5 SSW 5 7 1005.6 R 5.0 Thunderstorm Cloudy 7 - - - -
01/11:42am 26.6 WSW 5 7 1005.7 - 4.6 Thunderstorm Mostly clear 10 - - - -
01/11:28am 26.2 WSW 7 10 1006.0 - 4.6 Thunderstorm Mostly clear 5 - - - -
01/11:15am 27.0 SSW 5 7 1006.5 - 3.2 Thunderstorm Mostly clear 3 - - - -
01/11:00am 26.9 W 5 7 1006.4 - 2.6 Rain Mostly clear 5 - - - -
01/10:48am 26.7 W 5 7 1006.4 - 2.6 Rain Mostly clear 7 - - - -
01/10:30am 26.5 W 4 5 1006.3 - 2.4 Rain Mostly clear 6 - - - -
01/10:26am 26.6 WSW 3 5 1006.4 - 2.0 Rain Mostly clear 6 - - - -
01/10:00am 26.4 W 4 7 1006.5 - 1.8 Rain Mostly clear 10 - - - -
01/09:39am 26.4 NW 4 6 1006.8 - 1.8 - Partly cloudy 7 - - - -
01/09:30am 26.4 WNW 4 6 1006.9 - 1.6 Rain Mostly clear 7 - - - -
01/09:00am 26.3 W 4 - 1006.4 F 2.0 Rain Cloudy 6 - - - -
01/08:59am 26.3 W 4 7 1006.7 - 1.6 Rain Mostly clear 6 - - - -
01/08:30am 26.4 CALM 0 0 1006.9 - 0.6 Rain Mostly clear 10 - - - -
01/08:00am 26.4 CALM 0 0 1006.8 - 0.2 Rain Mostly clear 10 - - - -
01/07:30am 26.4 SSW 3 4 1006.3 - 0.0 Rain Mostly clear 10 - - - -
01/07:00am 26.3 CALM 0 0 1006.1 - 0.0 Rain Mostly clear 10 - - - -
01/06:30am 26.3 CALM 0 0 1005.7 - 0.0 - Mostly clear 10 - - - -
01/06:00am 26.3 WSW 3 6 1005.1 S 0.0 Distant precip. Mostly cloudy 21 - - - -
01/05:30am 26.3 CALM 0 3 1004.9 - 0.0 - - 10 - - - -
01/05:00am 26.3 W 3 4 1004.2 - 0.0 - - 10 - - - -
01/04:30am 26.3 W 4 5 1004.1 - 0.0 - - 10 - - - -
01/04:00am 26.3 WSW 4 5 1004.1 - 0.0 - - 10 - - - -
01/03:30am 26.0 WSW 4 6 1004.3 - 0.0 - - 10 - - - -
01/03:00am 26.2 W 3 4 1004.5 - 0.0 - - 10 - - - -
01/02:30am 26.3 W 4 6 1005.0 - 0.0 - - 10 - - - -
01/02:00am 26.2 WSW 4 6 1005.2 - 0.0 - - 10 - - - -
01/01:30am 25.7 W 4 5 1005.8 - 0.0 - - 10 - - - -
01/01:00am 24.9 WSW 3 4 1006.3 - 0.0 - Partly cloudy 10 - - - -
01/12:30am 24.9 SW 3 4 1006.1 - 0.0 - - 10 - - - -
01/12:00am 25.1 CALM 0 0 1006.1 - 0.0 - - 10 - - - -
 
Date/Time
CST
Temp

°C
Wind Pressure Rain
since 9am
mm
Weather Cloud Vis
km
Sea
Height
m
Swell
Dir
 
Speed
knots
Gust
knots
hPa Trend Height
m
Period
s
Dir
28/11:30pm 25.0 SW 2 4 1006.8 - 0.0 - - 10 - - - -
28/11:00pm 25.0 SW 4 5 1007.0 - 0.0 - - 10 - - - -
28/10:30pm 25.2 CALM 0 0 1007.2 - 0.0 - - 10 - - - -
28/10:00pm 25.3 CALM 0 0 1006.4 - 0.0 - - 10 - - - -
28/09:30pm 25.7 CALM 0 0 1006.2 - 0.0 - Mostly clear 10 - - - -
28/09:00pm 26.2 CALM 0 0 1005.9 F 0.0 Fine Mostly cloudy 25 - - - -
28/08:30pm 26.8 NW 1 4 1006.1 - 0.0 - Mostly clear 10 - - - -
28/08:00pm 27.0 WNW 1 5 1005.9 - 0.0 - Mostly clear 10 - - - -
28/07:30pm 27.8 CALM 0 0 1005.5 - 0.0 - Mostly clear 10 - - - -
28/07:00pm 28.6 E 3 6 1005.2 - 0.0 - Mostly clear 10 - - - -
28/06:30pm 28.9 ENE 5 6 1005.1 - 0.0 - Mostly clear 10 - - - -
28/06:00pm 29.3 ENE 5 7 1004.6 R 0.0 Distant precip. Mostly cloudy 27 - - - -
28/05:30pm 29.6 ENE 5 7 1004.8 - 0.0 - Mostly clear 10 - - - -
28/05:00pm 29.5 ENE 7 9 1004.5 - 0.0 - Mostly clear 10 - - - -
28/04:30pm 30.0 ENE 8 11 1004.2 - 0.0 Showers Mostly clear 10 - - - -
28/04:00pm 30.1 ENE 8 11 1004.2 - 0.0 - Mostly clear 10 - - - -
28/03:30pm 30.5 ENE 8 10 1004.0 - 0.0 - Mostly clear 10 - - - -
28/03:00pm 31.0 NNE 10 12 1003.9 F 0.0 Fine Mostly cloudy 28 - - - -
28/02:30pm 32.6 NW 6 9 1004.6 - 0.0 - Mostly clear 10 - - - -
28/02:00pm 32.2 WNW 4 6 1004.9 - 0.0 - Mostly clear 10 - - - -
28/01:30pm 31.3 SW 3 6 1005.4 - 0.0 - Mostly clear 10 - - - -
28/01:00pm 31.5 SW 4 6 1005.9 - 0.0 - Mostly clear 10 - - - -
28/12:30pm 31.2 SW 4 7 1006.1 - 0.0 - Mostly clear 10 - - - -
28/12:00pm 31.3 WSW 5 8 1006.6 R 0.0 Fine Mostly cloudy 26 - - - -
28/11:30am 30.8 SW 6 9 1007.3 - 0.0 - Mostly clear 10 - - - -
28/11:00am 30.9 SW 7 12 1007.5 - 0.0 - - 10 - - - -
28/10:30am 30.2 W 7 11 1007.7 - 0.0 - - 10 - - - -
28/10:00am 30.0 SW 7 11 1007.7 - 0.0 - Mostly clear 10 - - - -
28/09:30am 29.2 W 7 11 1007.3 - 0.0 - Mostly clear 10 - - - -
28/09:00am 28.6 W 8 12 1007.1 F 0.0 Fine Mostly cloudy 25 - - - -
28/08:30am 27.8 W 7 10 1007.2 - 0.0 - Mostly clear 10 - - - -
28/08:00am 26.7 W 7 11 1006.9 - 0.0 - Mostly clear 10 - - - -
28/07:30am 25.9 W 5 7 1006.5 - 0.0 - Mostly clear 10 - - - -
28/07:00am 25.1 W 4 6 1006.3 - 0.0 - Mostly clear 10 - - - -
28/06:30am 24.9 W 4 6 1006.4 - 0.0 - Mostly clear 10 - - - -
28/06:00am 24.7 W 4 5 1005.9 R 0.0 Fine Mostly cloudy 30 - - - -
28/05:30am 24.5 W 4 5 1005.8 - 0.0 - - 10 - - - -
28/05:00am 24.3 W 4 5 1006.0 - 0.0 - - 10 - - - -
28/04:30am 24.0 WNW 3 4 1005.9 - 0.0 - - 10 - - - -
28/04:00am 24.0 WNW 3 5 1005.5 - 0.0 - - 10 - - - -
28/03:30am 24.0 WNW 4 5 1005.2 - 0.0 - - 10 - - - -
28/03:00am 24.0 W 3 4 1005.2 - 0.0 - - 10 - - - -
28/02:30am 24.0 WSW 4 5 1005.7 - 0.0 - - 10 - - - -
28/02:00am 24.0 WSW 4 5 1006.0 - 0.0 - - 10 - - - -
28/01:30am 24.4 W 4 5 1006.2 - 0.0 - - 10 - - - -
28/01:00am 24.4 WSW 4 5 1006.5 - 0.0 - - 10 - - - -
28/12:30am 24.7 WSW 3 4 1007.0 - 0.0 - - 10 - - - -
28/12:00am 25.2 W 4 5 1007.2 - 0.0 - - 10 - - - -
 
Date/Time
CST
Temp

°C
Wind Pressure Rain
since 9am
mm
Weather Cloud Vis
km
Sea
Height
m
Swell
Dir
 
Speed
knots
Gust
knots
hPa Trend Height
m
Period
s
Dir
27/11:30pm 25.7 WNW 6 8 1007.9 - 0.0 - - 10 - - - -
27/11:00pm 26.1 W 6 9 1008.1 - 0.0 - Partly cloudy 10 - - - -
27/10:30pm 26.7 WNW 6 9 1008.3 - 0.0 - Partly cloudy 10 - - - -
27/10:00pm 26.1 WNW 6 8 1008.0 - 0.0 - Mostly clear 10 - - - -
27/09:30pm 25.4 WNW 3 4 1007.9 - 0.0 - Mostly clear 10 - - - -
27/09:00pm 25.6 CALM 0 0 1007.0 F 0.0 Thunder Partly cloudy 25 - - - -
27/08:30pm 25.7 W 4 5 1006.9 - 0.0 - Mostly clear 10 - - - -
27/08:00pm 25.4 W 4 5 1006.7 - 0.0 - Mostly clear 10 - - - -
27/07:30pm 25.8 CALM 0 3 1006.4 - 0.0 - Mostly clear 10 - - - -
27/07:00pm 26.2 CALM 0 3 1005.8 - 0.0 - Mostly clear 10 - - - -
27/06:30pm 26.5 W 5 7 1005.8 - 0.0 - Mostly clear 10 - - - -
27/06:00pm 27.2 WNW 4 6 1005.4 R 0.0 Distant precip. Mostly cloudy 27 - - - -
27/05:30pm 27.9 NW 6 9 1004.8 - 0.0 - Mostly clear 10 - - - -
27/05:00pm 29.7 NNW 7 11 1004.7 - 0.0 Showers Mostly clear 10 - - - -
27/04:30pm 28.7 WNW 3 5 1004.8 - 0.0 Showers Mostly clear 10 - - - -
27/04:00pm 29.4 N 7 10 1004.6 - 0.0 Showers Mostly clear 4 - - - -
27/03:30pm 30.5 NE 7 11 1004.5 - 0.0 - Mostly clear 10 - - - -
27/03:00pm 31.0 E 9 12 1004.4 F 0.0 Distant precip. Mostly cloudy 27 - - - -
27/02:30pm 30.9 NNE 6 9 1004.7 - 0.0 - Mostly clear 10 - - - -
27/02:00pm 31.1 E 9 13 1004.9 - 0.0 - Mostly clear 10 - - - -
27/01:30pm 31.5 ENE 6 10 1005.1 - 0.0 - Partly cloudy 10 - - - -
27/01:00pm 33.2 NNW 7 13 1005.5 - 0.0 - Partly cloudy 10 - - - -
27/12:30pm 33.2 WNW 7 13 1006.1 - 0.0 - Mostly clear 10 - - - -
27/12:00pm 32.5 SSW 5 8 1006.5 F 0.0 Fine Partly cloudy 30 - - - -
27/11:30am 32.6 SSW 6 10 1007.0 - 0.0 - Mostly clear 10 - - - -
27/11:00am 31.8 WSW 7 11 1007.1 - 0.0 - Mostly clear 10 - - - -
27/10:30am 31.3 WSW 8 12 1007.3 - 0.0 - Mostly clear 10 - - - -
27/10:00am 30.9 SW 6 9 1007.7 - 0.0 - Mostly clear 10 - - - -
27/09:30am 30.2 SW 7 10 1008.0 - 0.0 - Mostly clear 10 - - - -
27/09:00am 29.5 WSW 7 11 1007.8 R 7.2 Fine Mostly cloudy 30 - - - -
27/08:30am 28.3 W 6 9 1008.0 - 7.2 - Mostly clear 10 - - - -
27/08:00am 27.7 W 6 8 1007.7 - 7.2 - Partly cloudy 10 - - - -
27/07:30am 26.4 CALM 0 0 1007.1 - 7.2 - - 10 - - - -
27/07:00am 25.7 W 3 4 1006.6 - 7.2 - - 10 - - - -
27/06:30am 24.7 CALM 0 0 1006.2 - 7.2 - Mostly clear 10 - - - -

Other Formats:

Comma delimited format used in spreadsheet applications
http://www.bom.gov.au/fwo/IDD60701/IDD60701.94150.axf

JavaScript Object Notation format (JSON) in row-major order
http://www.bom.gov.au/fwo/IDD60701/IDD60701.94150.json